YMES weather

RAAF Base East Sale
Victoria, Australia

Public forecast

Using degrees Celsius for public forecast. Weather courtesy of forecast.io.

METAR (pilot weather report)

Closest report is Melbourne Essendon Airport, 108.7 nm (201.4 km) W. Retrieved 2019/03/27 00:00 UTC (4 minutes ago):

YMEN 270000Z AUTO 10003KT 9999 // NCD 17/07 Q1024

TAF (pilot weather forecast)

Closest forecast is Wangaratta Airport, 108.8 nm (201.4 km) NNW. Retrieved 2019/03/26 19:00 UTC (5 hours ago):

TAF YWGT 261805Z 2619/2708 VRB05KT CAVOK